Time;durP1;ratioP1;P1;durP2;ratioP2;P2;SDS_P1;SDS_P2;PMS_P1;PMS_P2;Temp;Humidity;BMP_temperature;BMP_pressure;BME280_temperature;BME280_humidity;BME280_pressure;Samples;Min_cycle;Max_cycle;Signal;HPM_P1;HPM_P2
2024/01/19 00:00:12;;;;;;;;;;;1.40;54.60;;;-1.05;60.16;100480.47;12249003;19;19915;-84
2024/01/19 00:04:14;;;;;;;;;;;1.20;54.40;;;-0.72;60.17;100548.44;12248078;19;19919;-83
2024/01/19 00:08:15;;;;;;;;;;;1.10;54.40;;;-0.91;60.07;100524.75;12245912;19;19925;-84
2024/01/19 00:12:17;;;;;;;;;;;1.10;54.40;;;-0.79;60.14;100563.03;12249020;19;20338;-83
2024/01/19 00:16:18;;;;;;;;;;;1.20;54.40;;;-0.69;60.06;100580.03;12247610;19;19907;-83
2024/01/19 00:20:20;;;;;;;;;;;1.30;54.50;;;-0.71;60.17;100576.63;12246956;19;19915;-84
2024/01/19 00:24:21;;;;;;;;;;;1.30;54.50;;;-0.82;60.02;100562.22;12248403;19;19921;-84
2024/01/19 00:28:23;;;;;;;;;;;1.30;54.40;;;-1.00;59.98;100538.50;12246045;19;20260;-84
2024/01/19 00:32:24;;;;;;;;;;;1.10;54.40;;;-0.85;60.17;100569.97;12246340;19;19918;-84
2024/01/19 00:36:26;;;;;;;;;;;1.00;54.30;;;-0.93;60.15;100563.19;12247332;19;19998;-84
2024/01/19 00:40:27;;;;;;;;;;;1.00;54.30;;;-0.83;60.15;100588.75;12247436;19;19923;-83
2024/01/19 00:44:29;;;;;;;;;;;1.30;54.40;;;-0.86;60.05;100591.31;12247668;19;19913;-83
2024/01/19 00:48:30;;;;;;;;;;;1.20;54.40;;;-0.90;60.16;100601.59;12245494;19;19918;-83
2024/01/19 00:52:32;;;;;;;;;;;1.00;54.30;;;-0.92;60.13;100597.34;12247926;19;19923;-83
2024/01/19 00:56:34;;;;;;;;;;;0.90;54.20;;;-0.91;60.12;100601.63;12246123;19;19922;-83
2024/01/19 01:00:35;;;;;;;;;;;0.90;54.20;;;-1.26;59.97;100555.88;12247303;19;19919;-83
2024/01/19 01:04:36;;;;;;;;;;;0.90;54.20;;;-1.09;59.95;100592.41;12245781;19;19919;-83
2024/01/19 01:08:38;;;;;;;;;;;1.00;54.20;;;-1.16;60.04;100589.06;12242266;19;19922;-83
2024/01/19 01:12:39;;;;;;;;;;;0.80;54.10;;;-1.33;60.07;100565.28;12245424;19;19915;-83
2024/01/19 01:16:41;;;;;;;;;;;1.00;54.20;;;-1.10;60.01;100610.38;12244621;19;19914;-83
2024/01/19 01:20:43;;;;;;;;;;;0.90;54.10;;;-1.18;60.07;100615.56;12245899;19;19915;-83
2024/01/19 01:24:45;;;;;;;;;;;0.70;54.00;;;-1.40;60.04;100591.84;12247399;19;19911;-83
2024/01/19 01:28:46;;;;;;;;;;;0.80;54.00;;;-1.40;59.79;100600.38;12244150;19;19934;-83
2024/01/19 01:32:47;;;;;;;;;;;0.60;53.90;;;-1.42;59.99;100617.44;12247168;19;19922;-83
2024/01/19 01:36:49;;;;;;;;;;;0.80;53.90;;;-1.65;59.79;100583.47;12242676;19;19911;-83
2024/01/19 01:40:50;;;;;;;;;;;0.50;53.80;;;-1.43;60.04;100632.81;12247525;19;19923;-83
2024/01/19 01:44:51;;;;;;;;;;;0.70;53.90;;;-1.51;59.89;100617.53;12243119;19;20989;-83
2024/01/19 01:48:53;;;;;;;;;;;0.30;53.80;;;-1.84;59.97;100578.50;12243117;19;19915;-83
2024/01/19 01:52:54;;;;;;;;;;;0.70;53.90;;;-1.74;60.01;100604.03;12244459;19;19992;-83
2024/01/19 01:56:56;;;;;;;;;;;0.30;53.80;;;-1.66;60.00;100620.19;12242896;19;19927;-83
2024/01/19 02:00:58;;;;;;;;;;;0.30;53.90;;;-1.62;59.95;100638.09;12244842;19;19914;-83
2024/01/19 02:05:00;;;;;;;;;;;0.20;53.90;;;-1.74;59.82;100615.13;12244361;19;19911;-83
2024/01/19 02:09:01;;;;;;;;;;;0.50;54.00;;;-1.67;59.86;100639.00;12241468;19;20009;-83
2024/01/19 02:13:03;;;;;;;;;;;0.20;53.80;;;-1.70;60.02;100647.53;12244397;19;19915;-83
2024/01/19 02:17:04;;;;;;;;;;;0.20;53.90;;;-1.85;59.81;100629.69;12254806;19;20261;-83
2024/01/19 02:21:06;;;;;;;;;;;0.10;53.80;;;-1.84;60.00;100645.03;12255592;19;19923;-83
2024/01/19 02:25:08;;;;;;;;;;;0.10;53.90;;;-1.86;59.76;100668.97;12255630;19;19922;-83
2024/01/19 02:29:09;;;;;;;;;;;0.10;53.90;;;-1.88;59.95;100671.50;12251182;19;19914;-83
2024/01/19 02:33:11;;;;;;;;;;;0.00;53.80;;;-2.04;59.95;100645.16;12257454;19;19918;-83
2024/01/19 02:37:13;;;;;;;;;;;0.00;53.70;;;-1.99;59.91;100665.59;12252721;19;19918;-83
2024/01/19 02:41:15;;;;;;;;;;;-0.10;53.70;;;-2.06;59.91;100654.53;12255109;19;19915;-83
2024/01/19 02:45:17;;;;;;;;;;;0.00;53.80;;;-2.04;59.88;100660.50;12255192;19;19911;-83
2024/01/19 02:49:18;;;;;;;;;;;0.20;54.00;;;-2.01;59.89;100664.75;12256685;19;19911;-83
2024/01/19 02:53:20;;;;;;;;;;;0.20;53.90;;;-1.96;59.98;100680.94;12250444;19;19922;-83
2024/01/19 02:57:21;;;;;;;;;;;-0.10;53.80;;;-2.25;59.89;100632.47;12252804;19;19915;-83
2024/01/19 03:01:22;;;;;;;;;;;-0.10;53.90;;;-2.14;59.89;100655.44;12255997;19;19939;-83
2024/01/19 03:05:24;;;;;;;;;;;0.10;53.90;;;-2.04;59.87;100680.13;12253822;19;19914;-83
2024/01/19 03:09:26;;;;;;;;;;;-0.20;53.80;;;-2.05;59.93;100681.00;12254578;19;20386;-83
2024/01/19 03:13:27;;;;;;;;;;;0.10;53.90;;;-2.08;59.80;100674.19;12252612;19;19911;-83
2024/01/19 03:17:29;;;;;;;;;;;-0.20;53.80;;;-2.32;59.89;100634.19;12246617;19;19934;-83
2024/01/19 03:21:30;;;;;;;;;;;-0.20;53.80;;;-2.08;60.08;100670.75;12251274;19;20337;-83
2024/01/19 03:25:32;;;;;;;;;;;-0.10;53.90;;;-2.06;59.84;100676.72;12249609;19;19927;-83
2024/01/19 03:29:34;;;;;;;;;;;-0.20;53.80;;;-2.27;59.82;100641.84;12251000;19;20274;-83
2024/01/19 03:33:35;;;;;;;;;;;-0.20;53.80;;;-2.14;59.85;100666.50;12252796;19;19926;-83
2024/01/19 03:37:37;;;;;;;;;;;-0.20;53.80;;;-2.22;59.90;100661.41;12249358;19;19930;-83
2024/01/19 03:41:38;;;;;;;;;;;-0.20;53.80;;;-2.22;59.87;100666.53;12253069;19;19921;-83
2024/01/19 03:45:39;;;;;;;;;;;0.00;53.90;;;-2.23;59.85;100681.91;12251363;19;19915;-83
2024/01/19 03:49:41;;;;;;;;;;;-0.30;53.70;;;-2.23;59.96;100669.09;12249999;19;19918;-83
2024/01/19 03:53:45;;;;;;;;;;;-0.30;53.80;;;-2.23;59.87;100680.19;12252206;19;20237;-83
2024/01/19 03:57:47;;;;;;;;;;;0.00;53.90;;;-2.18;59.98;100685.28;12247831;19;19918;-83
2024/01/19 04:01:49;;;;;;;;;;;-0.30;53.90;;;-2.53;60.02;100626.59;12251855;19;19926;-83
2024/01/19 04:05:51;;;;;;;;;;;-0.30;53.90;;;-2.36;60.16;100664.91;12250681;19;19948;-83
2024/01/19 04:09:53;;;;;;;;;;;-0.20;54.00;;;-2.30;60.03;100663.16;12250791;19;19910;-83
2024/01/19 04:13:55;;;;;;;;;;;-0.30;54.00;;;-2.25;60.19;100681.88;12248483;19;19926;-83
2024/01/19 04:17:56;;;;;;;;;;;-0.20;54.10;;;-2.22;60.00;100691.25;12247158;19;19966;-83
2024/01/19 04:21:58;;;;;;;;;;;0.10;54.20;;;-2.06;60.05;100722.75;12249544;19;19915;-83
2024/01/19 04:25:59;;;;;;;;;;;0.10;54.30;;;-2.10;60.08;100708.28;12247341;19;19929;-83
2024/01/19 04:30:01;;;;;;;;;;;-0.10;54.20;;;-2.09;60.04;100709.97;12249218;19;19944;-83
2024/01/19 04:34:02;;;;;;;;;;;-0.10;54.20;;;-2.25;60.03;100676.78;12249188;19;19915;-83
2024/01/19 04:38:04;;;;;;;;;;;-0.10;54.20;;;-2.11;60.07;100689.50;12246114;19;19922;-83
2024/01/19 04:42:05;;;;;;;;;;;0.00;54.20;;;-1.98;60.12;100723.59;12249999;19;19911;-83
2024/01/19 04:46:07;;;;;;;;;;;-0.10;54.10;;;-1.99;59.96;100721.88;12248600;19;19922;-83
2024/01/19 04:50:09;;;;;;;;;;;0.30;54.30;;;-2.01;59.97;100719.31;12246385;19;20334;-83
2024/01/19 04:54:10;;;;;;;;;;;-0.10;54.10;;;-1.98;60.17;100722.72;12248623;19;19926;-83
2024/01/19 04:58:11;;;;;;;;;;;0.10;54.20;;;-1.98;60.21;100726.13;12246230;19;19918;-83
2024/01/19 05:02:13;;;;;;;;;;;0.00;54.10;;;-2.02;60.23;100721.91;12248063;19;19915;-83
2024/01/19 05:06:15;;;;;;;;;;;-0.10;54.10;;;-2.06;60.20;100731.28;12239101;19;19930;-83
2024/01/19 05:10:16;;;;;;;;;;;0.30;54.30;;;-2.09;60.17;100712.53;12247375;19;19918;-83
2024/01/19 05:14:18;;;;;;;;;;;0.00;54.10;;;-1.97;60.17;100725.31;12245733;19;19915;-83
2024/01/19 05:18:21;;;;;;;;;;;0.00;54.20;;;-1.96;60.19;100742.34;12245188;19;19930;-83
2024/01/19 05:22:22;;;;;;;;;;;0.00;54.10;;;-1.99;60.19;100742.34;12247379;19;19918;-83
2024/01/19 05:26:25;;;;;;;;;;;0.00;54.20;;;-2.05;60.10;100732.16;12248123;19;19910;-83
2024/01/19 05:30:26;;;;;;;;;;;0.00;54.20;;;-1.94;60.20;100753.44;12248071;19;19918;-84
2024/01/19 05:34:28;;;;;;;;;;;0.00;54.20;;;-1.92;60.01;100759.38;12236655;19;20008;-84
2024/01/19 05:38:30;;;;;;;;;;;0.00;54.20;;;-1.92;60.15;100750.84;12227439;19;20677;-84
2024/01/19 05:42:31;;;;;;;;;;;0.10;54.30;;;-1.97;60.23;100745.78;12239945;19;19919;-84
2024/01/19 05:46:32;;;;;;;;;;;0.10;54.30;;;-1.91;60.16;100747.44;12235708;19;19911;-84
2024/01/19 05:50:34;;;;;;;;;;;0.20;54.40;;;-1.93;60.17;100752.56;12245245;19;19952;-84
2024/01/19 05:54:35;;;;;;;;;;;0.40;54.40;;;-1.82;60.16;100755.94;12245358;19;19918;-84
2024/01/19 05:58:36;;;;;;;;;;;0.10;54.30;;;-1.86;60.33;100758.53;12250989;19;19934;-84
2024/01/19 06:02:38;;;;;;;;;;;0.40;54.50;;;-1.79;60.25;100761.03;12257697;19;19932;-84
2024/01/19 06:06:39;;;;;;;;;;;0.10;54.40;;;-1.86;60.29;100753.41;12254385;19;20274;-84
2024/01/19 06:10:41;;;;;;;;;;;0.20;54.40;;;-1.74;60.22;100771.25;12258075;19;20010;-84
2024/01/19 06:14:42;;;;;;;;;;;0.20;54.40;;;-2.04;60.27;100718.50;12256188;19;19915;-84
2024/01/19 06:18:44;;;;;;;;;;;0.20;54.40;;;-1.72;60.23;100774.66;12250021;19;20262;-84
2024/01/19 06:22:45;;;;;;;;;;;0.20;54.40;;;-1.98;60.22;100723.59;12255744;19;19926;-84
2024/01/19 06:26:48;;;;;;;;;;;0.20;54.40;;;-1.95;60.29;100730.41;12255133;19;19940;-84
2024/01/19 06:30:49;;;;;;;;;;;0.30;54.40;;;-1.68;60.18;100789.13;12255310;19;19918;-84
2024/01/19 06:34:50;;;;;;;;;;;0.30;54.40;;;-1.96;60.20;100749.16;12256400;19;19914;-85
2024/01/19 06:38:54;;;;;;;;;;;0.70;54.60;;;-1.69;60.17;100791.72;12261837;19;19918;-85
2024/01/19 06:42:55;;;;;;;;;;;0.40;54.50;;;-1.65;60.23;100799.38;12269755;19;19922;-85
2024/01/19 06:46:56;;;;;;;;;;;0.60;54.50;;;-1.63;60.26;100809.63;12256476;19;20320;-84
2024/01/19 06:50:58;;;;;;;;;;;0.40;54.40;;;-1.71;60.35;100796.84;12254685;19;19923;-85
2024/01/19 06:54:59;;;;;;;;;;;0.70;54.50;;;-1.69;60.32;100807.09;12255280;19;19919;-84
2024/01/19 06:59:02;;;;;;;;;;;0.40;54.40;;;-1.55;60.27;100830.91;12248594;19;20077;-85
2024/01/19 07:03:03;;;;;;;;;;;0.40;54.40;;;-1.94;60.27;100765.38;12254871;19;19948;-85
2024/01/19 07:07:05;;;;;;;;;;;0.40;54.40;;;-1.51;60.29;100836.88;12252451;19;19939;-84
2024/01/19 07:11:06;;;;;;;;;;;0.40;54.40;;;-1.61;60.18;100820.72;12255532;19;19935;-84
2024/01/19 07:15:07;;;;;;;;;;;0.60;54.40;;;-1.50;60.36;100833.47;12252196;19;20281;-84
2024/01/19 07:19:10;;;;;;;;;;;0.40;54.40;;;-1.50;60.35;100836.03;12250866;19;20322;-84
2024/01/19 07:23:11;;;;;;;;;;;0.40;54.40;;;-1.83;60.31;100784.94;12253648;19;19919;-84
2024/01/19 07:27:13;;;;;;;;;;;0.40;54.40;;;-1.62;60.38;100831.78;12250472;19;19915;-85
2024/01/19 07:31:14;;;;;;;;;;;0.40;54.40;;;-1.50;60.24;100854.78;12253765;19;19919;-85
2024/01/19 07:35:17;;;;;;;;;;;0.50;54.40;;;-1.59;60.40;100839.47;12253339;19;19933;-84
2024/01/19 07:39:23;;;;;;;;;;;0.60;54.50;;;-1.48;60.30;100858.22;12248505;19;20246;-84
2024/01/19 07:43:25;;;;;;;;;;;0.50;54.40;;;-1.58;60.40;100846.28;12251672;19;19911;-84
2024/01/19 07:47:26;;;;;;;;;;;0.70;54.50;;;-1.77;60.45;100819.91;12250430;19;19957;-85
2024/01/19 07:51:28;;;;;;;;;;;0.50;54.50;;;-1.44;60.35;100876.97;12250364;19;19915;-84
2024/01/19 07:55:29;;;;;;;;;;;0.50;54.40;;;-1.48;60.43;100865.06;12248032;19;19930;-84
2024/01/19 07:59:30;;;;;;;;;;;0.80;54.60;;;-1.49;60.33;100863.31;12250003;19;19983;-83
2024/01/19 08:03:32;;;;;;;;;;;0.50;54.50;;;-1.50;60.36;100862.47;12250574;19;20326;-84
2024/01/19 08:07:33;;;;;;;;;;;0.80;54.60;;;-1.50;60.41;100861.63;12249163;19;19943;-84
2024/01/19 08:11:35;;;;;;;;;;;0.60;54.50;;;-1.91;60.36;100802.03;12249054;19;19947;-87
2024/01/19 08:15:36;;;;;;;;;;;0.80;54.60;;;-1.42;60.41;100888.06;12252323;19;19914;-84
2024/01/19 08:19:38;;;;;;;;;;;0.60;54.50;;;-1.33;60.38;100903.38;12247849;19;20351;-83
2024/01/19 08:23:39;;;;;;;;;;;0.90;54.70;;;-1.27;60.41;100907.63;12247998;19;19922;-83
2024/01/19 08:27:41;;;;;;;;;;;0.60;54.50;;;-1.27;60.47;100905.06;12244564;19;19937;-84
2024/01/19 08:31:43;;;;;;;;;;;0.70;54.60;;;-1.24;60.42;100899.94;12244940;19;19971;-85
2024/01/19 08:35:45;;;;;;;;;;;0.70;54.60;;;-1.30;60.35;100894.84;12246480;19;19919;-85
2024/01/19 08:39:47;;;;;;;;;;;0.80;54.60;;;-1.16;60.44;100927.25;12245791;19;19930;-84
2024/01/19 08:43:48;;;;;;;;;;;0.80;54.70;;;-1.18;60.53;100912.75;12245478;19;19929;-85
2024/01/19 08:47:50;;;;;;;;;;;0.90;54.70;;;-1.31;60.44;100893.16;12242871;19;19915;-85
2024/01/19 08:51:51;;;;;;;;;;;1.00;54.80;;;-1.01;60.51;100940.84;12248712;19;19996;-87
2024/01/19 08:55:53;;;;;;;;;;;1.10;54.80;;;-1.01;60.39;100938.28;12248328;19;19921;-86
2024/01/19 08:59:55;;;;;;;;;;;0.90;54.70;;;-0.92;60.48;100945.94;12249539;19;19923;-87
2024/01/19 09:03:56;;;;;;;;;;;1.20;54.90;;;-0.95;60.38;100938.25;12249393;19;19923;-86
2024/01/19 09:07:58;;;;;;;;;;;1.20;54.90;;;-0.85;60.62;100941.63;12244289;19;19951;-86
2024/01/19 09:11:59;;;;;;;;;;;1.10;54.90;;;-0.82;60.43;100939.06;12248337;19;19915;-87
2024/01/19 09:16:01;;;;;;;;;;;1.10;54.90;;;-0.72;60.48;100958.66;12244460;19;20330;-86
2024/01/19 09:20:04;;;;;;;;;;;1.20;55.00;;;-0.62;60.50;100965.47;12246094;19;19926;-85
2024/01/19 09:24:06;;;;;;;;;;;1.30;55.00;;;-0.54;60.52;100984.22;12250173;19;20000;-86
2024/01/19 09:28:08;;;;;;;;;;;1.30;55.00;;;-0.50;60.66;100985.03;12253735;19;19927;-85
2024/01/19 09:32:12;;;;;;;;;;;1.40;55.00;;;-0.52;60.58;100972.22;12259020;19;20227;-85
2024/01/19 09:36:14;;;;;;;;;;;1.50;55.10;;;-0.42;60.56;100983.28;12256091;19;20338;-85
2024/01/19 09:40:16;;;;;;;;;;;1.60;55.10;;;-0.34;60.60;100985.81;12261969;19;20168;-85
2024/01/19 09:44:18;;;;;;;;;;;1.60;55.10;;;-0.23;60.71;100994.28;12258006;19;19967;-86
2024/01/19 09:48:24;;;;;;;;;;;1.90;55.20;;;-0.15;60.57;100991.69;12256027;19;19926;-85
2024/01/19 09:52:40;;;;;;;;;;;1.80;55.20;;;-0.03;60.57;101018.13;12259418;19;20341;-87
2024/01/19 09:56:41;;;;;;;;;;;1.80;55.20;;;-0.03;60.69;100999.28;12258790;19;19922;-86
2024/01/19 10:00:43;;;;;;;;;;;1.90;55.20;;;-0.11;60.64;100977.94;12260366;19;19922;-86
2024/01/19 10:04:44;;;;;;;;;;;2.00;55.30;;;0.20;60.70;101014.53;12258184;19;19928;-86
2024/01/19 10:08:46;;;;;;;;;;;2.10;55.30;;;0.26;60.55;101016.19;12253207;19;19915;-86
2024/01/19 10:12:47;;;;;;;;;;;2.20;55.40;;;0.50;60.73;101035.69;12257670;19;20269;-86
2024/01/19 10:16:50;;;;;;;;;;;2.30;55.40;;;0.53;60.82;101020.22;12255992;19;19925;-86
2024/01/19 10:20:51;;;;;;;;;;;2.60;55.60;;;0.41;60.92;100982.66;12260193;19;19918;-87
2024/01/19 10:25:03;;;;;;;;;;;2.60;55.60;;;0.88;60.94;101051.56;12258681;19;19927;-86
2024/01/19 10:29:11;;;;;;;;;;;2.70;55.70;;;0.98;60.89;101041.22;12255499;19;19923;-86
2024/01/19 10:33:12;;;;;;;;;;;2.80;55.70;;;1.09;60.84;101045.34;12256246;19;19915;-86
2024/01/19 10:37:21;;;;;;;;;;;3.00;55.80;;;0.93;60.81;100996.69;12252708;19;20349;-86
2024/01/19 10:41:27;;;;;;;;;;;3.10;55.80;;;1.41;60.98;101062.16;12257011;19;20259;-87
2024/01/19 10:45:34;;;;;;;;;;;3.30;55.90;;;1.21;60.99;101007.50;12254531;19;19923;-87
2024/01/19 10:49:36;;;;;;;;;;;3.50;56.00;;;1.68;61.11;101062.69;12255081;19;19927;-88
2024/01/19 10:53:37;;;;;;;;;;;3.60;56.00;;;1.80;61.22;101062.50;12256485;19;19939;-87
2024/01/19 10:57:39;;;;;;;;;;;3.70;56.00;;;1.72;61.02;101036.84;12254073;19;20576;-86
2024/01/19 11:01:41;;;;;;;;;;;3.90;56.00;;;2.04;61.16;101068.19;12254213;19;19927;-87
2024/01/19 11:05:45;;;;;;;;;;;4.00;56.00;;;2.10;60.92;101063.78;12255149;19;20349;-87
2024/01/19 11:09:46;;;;;;;;;;;4.40;56.00;;;2.21;61.12;101079.97;12255710;19;20334;-87
2024/01/19 11:13:52;;;;;;;;;;;4.50;56.00;;;2.24;61.02;101071.31;12256272;19;19923;-86
2024/01/19 11:17:56;;;;;;;;;;;4.30;55.80;;;2.41;61.09;101083.94;12250051;19;19930;-87
2024/01/19 11:21:59;;;;;;;;;;;4.50;55.90;;;2.52;61.10;101094.94;12253992;19;19915;-86
2024/01/19 11:26:07;;;;;;;;;;;4.50;55.80;;;2.67;60.99;101109.28;12254596;19;19923;-87
2024/01/19 11:30:32;;;;;;;;;;;4.50;55.90;;;2.69;60.82;101091.22;12251899;19;19921;-88
2024/01/19 11:34:42;;;;;;;;;;;4.70;55.90;;;2.88;60.97;101108.09;12253944;19;19919;-87
2024/01/19 11:38:48;;;;;;;;;;;4.70;55.80;;;2.75;60.92;101065.31;12251937;19;19919;-87
2024/01/19 11:42:49;;;;;;;;;;;4.80;55.80;;;2.64;60.90;101052.63;12254723;19;19923;-86
2024/01/19 11:46:51;;;;;;;;;;;4.90;55.80;;;3.08;60.94;101106.00;12250005;19;19940;-87
2024/01/19 11:50:52;;;;;;;;;;;5.00;55.80;;;3.17;61.10;101117.88;12257112;19;19922;-86
2024/01/19 11:54:53;;;;;;;;;;;5.00;55.70;;;3.22;61.08;101107.50;12255119;19;20349;-87
2024/01/19 11:58:55;;;;;;;;;;;5.10;55.70;;;3.29;60.81;101121.97;12252929;19;19923;-87
2024/01/19 12:02:57;;;;;;;;;;;5.20;55.70;;;3.28;60.88;101108.22;12254782;19;19932;-87
2024/01/19 12:07:03;;;;;;;;;;;5.20;55.60;;;3.38;60.88;101106.31;12252045;19;19959;-88
2024/01/19 12:11:07;;;;;;;;;;;5.30;55.70;;;3.36;61.00;101100.31;12256102;19;19944;-87
2024/01/19 12:15:10;;;;;;;;;;;5.30;55.60;;;3.43;60.92;101098.47;12253527;19;20294;-88
2024/01/19 12:19:13;;;;;;;;;;;5.40;55.60;;;3.50;61.04;101106.06;12252567;19;19923;-86
2024/01/19 12:23:14;;;;;;;;;;;5.60;55.70;;;3.53;60.80;101100.84;12252902;19;19911;-86
2024/01/19 12:27:20;;;;;;;;;;;5.50;55.60;;;3.48;60.69;101079.44;12251097;19;20570;-86
2024/01/19 12:31:27;;;;;;;;;;;5.60;55.60;;;3.69;60.79;101123.78;12252454;19;19923;-87
2024/01/19 12:35:28;;;;;;;;;;;5.70;55.70;;;3.77;60.72;101125.31;12249334;19;19973;-87
2024/01/19 12:39:31;;;;;;;;;;;5.70;55.60;;;3.79;60.66;101133.03;12243143;19;19922;-91
2024/01/19 12:43:33;;;;;;;;;;;5.70;55.50;;;3.95;60.62;101160.25;12252723;19;19944;-87
2024/01/19 12:47:40;;;;;;;;;;;5.80;55.50;;;3.91;60.75;101152.59;12249874;19;20285;-88
2024/01/19 12:51:42;;;;;;;;;;;5.80;55.50;;;3.99;61.00;101156.72;12251804;19;19911;-88
2024/01/19 12:55:45;;;;;;;;;;;5.80;55.50;;;4.02;60.99;101154.94;12249947;19;19933;-88
2024/01/19 12:59:46;;;;;;;;;;;5.90;55.50;;;4.14;60.72;101181.38;12249063;19;19922;-88
2024/01/19 13:03:48;;;;;;;;;;;6.00;55.30;;;4.02;60.67;101154.94;12251093;19;20374;-88
2024/01/19 13:07:50;;;;;;;;;;;5.90;55.30;;;4.07;60.70;101174.66;12251015;19;19919;-87
2024/01/19 13:11:53;;;;;;;;;;;6.00;55.30;;;4.08;60.54;101183.25;12251070;19;19911;-88
2024/01/19 13:15:54;;;;;;;;;;;6.00;55.20;;;3.94;60.87;101145.66;12243907;19;19922;-87
2024/01/19 13:19:55;;;;;;;;;;;6.00;55.30;;;3.89;60.82;101144.88;12247835;19;19919;-88
2024/01/19 13:23:57;;;;;;;;;;;6.10;55.40;;;4.24;60.89;101194.09;12238871;19;19944;-87
2024/01/19 13:27:59;;;;;;;;;;;6.10;55.30;;;4.33;60.76;101202.53;12239171;19;19994;-88
2024/01/19 13:32:01;;;;;;;;;;;6.30;55.40;;;4.28;60.85;101206.94;12247062;19;19919;-88
2024/01/19 13:36:03;;;;;;;;;;;6.10;55.40;;;4.41;60.67;101216.13;12246485;19;19918;-88
2024/01/19 13:40:05;;;;;;;;;;;6.20;55.40;;;4.50;60.75;101240.09;12249991;19;19919;-87
2024/01/19 13:44:06;;;;;;;;;;;6.20;55.40;;;4.47;60.87;101230.66;12252146;19;19961;-87
2024/01/19 13:48:08;;;;;;;;;;;6.20;55.40;;;4.53;60.64;101240.88;12245211;19;20368;-87
2024/01/19 13:52:10;;;;;;;;;;;6.30;55.40;;;4.52;60.79;101238.34;12251609;19;19915;-87
2024/01/19 13:56:12;;;;;;;;;;;6.50;55.50;;;4.51;60.57;101237.50;12247416;19;19921;-87
2024/01/19 14:00:14;;;;;;;;;;;6.40;55.40;;;4.53;60.74;101243.44;12249394;19;20358;-87
2024/01/19 14:04:16;;;;;;;;;;;6.40;55.40;;;4.56;60.54;101260.63;12247793;19;19998;-88
2024/01/19 14:08:19;;;;;;;;;;;6.40;55.30;;;4.55;60.54;101257.22;12239662;19;19922;-87
2024/01/19 14:12:21;;;;;;;;;;;6.40;55.30;;;4.53;60.68;101261.56;12258811;19;19935;-87
2024/01/19 14:16:22;;;;;;;;;;;6.40;55.20;;;4.41;60.57;101243.72;12258691;19;19918;-87
2024/01/19 14:20:24;;;;;;;;;;;6.70;55.40;;;4.40;60.74;101254.94;12261180;19;19915;-87
2024/01/19 14:24:26;;;;;;;;;;;6.40;55.20;;;4.54;60.62;101283.97;12259146;19;20009;-87
2024/01/19 14:28:27;;;;;;;;;;;6.60;55.30;;;4.47;60.54;101279.78;12251884;19;19923;-88
2024/01/19 14:32:29;;;;;;;;;;;6.40;55.10;;;4.48;60.63;101288.41;12255546;19;19918;-87
2024/01/19 14:36:31;;;;;;;;;;;6.40;55.00;;;4.50;60.69;101303.00;12257186;19;19930;-87
2024/01/19 14:40:32;;;;;;;;;;;6.30;55.10;;;4.51;60.59;101302.13;12257232;19;19970;-87
2024/01/19 14:44:34;;;;;;;;;;;6.30;55.20;;;4.59;60.59;101317.47;12259041;19;19918;-87
2024/01/19 14:48:36;;;;;;;;;;;6.30;55.20;;;4.48;60.78;101296.16;12255422;19;20398;-87
2024/01/19 14:52:43;;;;;;;;;;;6.30;55.20;;;4.31;60.51;101292.19;12258220;19;19923;-87
2024/01/19 14:56:44;;;;;;;;;;;6.30;55.20;;;4.42;60.32;101317.81;12256381;19;19982;-87
2024/01/19 15:00:46;;;;;;;;;;;6.30;55.20;;;4.50;60.43;101338.38;12258683;19;19927;-88
2024/01/19 15:04:47;;;;;;;;;;;6.30;55.20;;;4.48;60.40;101343.56;12258371;19;20330;-87
2024/01/19 15:08:48;;;;;;;;;;;6.20;55.10;;;4.15;60.39;101294.22;12251533;19;19959;-87
2024/01/19 15:12:51;;;;;;;;;;;6.20;55.10;;;4.42;60.50;101341.94;12257108;19;20396;-87
2024/01/19 15:16:53;;;;;;;;;;;6.20;55.20;;;4.39;60.60;101341.16;12257079;19;20350;-86
2024/01/19 15:20:54;;;;;;;;;;;6.30;55.20;;;4.18;60.38;101304.50;12259217;19;19922;-86
2024/01/19 15:24:55;;;;;;;;;;;6.10;55.20;;;4.32;60.74;101342.16;12257965;19;19915;-87
2024/01/19 15:28:57;;;;;;;;;;;6.10;55.20;;;4.37;60.49;101356.69;12253230;19;19915;-86
2024/01/19 15:32:58;;;;;;;;;;;6.10;55.20;;;4.13;60.40;101320.97;12255947;19;19954;-86
2024/01/19 15:36:59;;;;;;;;;;;6.10;55.20;;;4.25;60.35;101354.34;12257555;19;20373;-87
2024/01/19 15:41:01;;;;;;;;;;;6.00;55.20;;;4.09;60.26;101332.25;12257747;19;19922;-87
2024/01/19 15:45:02;;;;;;;;;;;6.00;55.20;;;4.17;60.38;101359.66;12256814;19;19922;-87
2024/01/19 15:49:04;;;;;;;;;;;6.00;55.20;;;4.22;60.31;101375.09;12254198;19;19960;-86
2024/01/19 15:53:05;;;;;;;;;;;6.00;55.20;;;4.24;60.44;101391.44;12256682;19;19903;-87
2024/01/19 15:57:06;;;;;;;;;;;6.10;55.30;;;4.17;60.31;101382.09;12255690;19;19929;-85
2024/01/19 16:01:08;;;;;;;;;;;6.00;55.30;;;4.17;60.48;101382.09;12259043;19;19922;-86
2024/01/19 16:05:10;;;;;;;;;;;5.90;55.20;;;4.10;60.44;101385.66;12256260;19;20351;-87
2024/01/19 16:09:11;;;;;;;;;;;5.90;55.20;;;3.98;60.29;101379.81;12254966;19;19922;-87
2024/01/19 16:13:12;;;;;;;;;;;5.80;55.10;;;4.01;60.31;101388.41;12255709;19;19911;-87
2024/01/19 16:17:14;;;;;;;;;;;5.80;55.20;;;4.09;60.49;101402.03;12251912;19;19950;-88
2024/01/19 16:21:19;;;;;;;;;;;5.80;55.20;;;3.82;60.40;101362.88;12255090;19;19922;-87
2024/01/19 16:25:24;;;;;;;;;;;5.80;55.20;;;3.83;60.30;101367.16;12251654;19;20233;-88
2024/01/19 16:29:27;;;;;;;;;;;6.00;55.30;;;3.98;60.31;101397.91;12251958;19;19940;-88
2024/01/19 16:33:29;;;;;;;;;;;5.70;55.10;;;3.85;60.46;101392.97;12255219;19;19930;-87
2024/01/19 16:37:30;;;;;;;;;;;5.60;55.10;;;3.94;60.51;101426.41;12253832;19;19915;-87
2024/01/19 16:41:32;;;;;;;;;;;5.60;55.10;;;3.71;60.32;101394.03;12256930;19;19965;-88
2024/01/19 16:45:33;;;;;;;;;;;5.60;55.10;;;3.70;60.30;101391.47;12250751;19;19919;-87
2024/01/19 16:49:35;;;;;;;;;;;5.60;55.10;;;3.75;60.29;101416.38;12256470;19;19914;-87
2024/01/19 16:53:36;;;;;;;;;;;5.60;55.20;;;3.84;60.47;101436.03;12255044;19;19926;-88
2024/01/19 16:57:37;;;;;;;;;;;5.50;55.10;;;3.71;60.20;101419.03;12254385;19;19918;-87
2024/01/19 17:01:39;;;;;;;;;;;5.50;55.20;;;3.76;60.24;101433.56;12255378;19;19923;-88
2024/01/19 17:05:40;;;;;;;;;;;5.50;55.20;;;3.76;60.48;101443.91;12252302;19;19926;-88
2024/01/19 17:09:42;;;;;;;;;;;5.40;55.10;;;3.74;60.46;101455.13;12253152;19;19911;-88
2024/01/19 17:13:43;;;;;;;;;;;5.50;55.30;;;3.76;60.33;101453.41;12256697;19;19918;-87
2024/01/19 17:17:45;;;;;;;;;;;5.60;55.30;;;3.75;60.43;101456.84;12252754;19;19949;-86
2024/01/19 17:21:47;;;;;;;;;;;5.40;55.30;;;3.74;60.38;101455.13;12255052;19;19926;-87
2024/01/19 17:25:48;;;;;;;;;;;5.50;55.30;;;3.72;60.46;101459.47;12251063;19;19927;-87
2024/01/19 17:29:49;;;;;;;;;;;5.40;55.20;;;3.63;60.35;101451.88;12254354;19;19915;-87
2024/01/19 17:33:51;;;;;;;;;;;5.40;55.30;;;3.74;60.48;101474.06;12248764;19;20377;-87
2024/01/19 17:37:52;;;;;;;;;;;5.40;55.30;;;3.75;60.34;101477.50;12253748;19;19926;-87
2024/01/19 17:41:54;;;;;;;;;;;5.40;55.30;;;3.73;60.44;101482.69;12253775;19;19923;-87
2024/01/19 17:45:55;;;;;;;;;;;5.40;55.30;;;3.66;60.37;101467.31;12254708;19;19929;-87
2024/01/19 17:49:57;;;;;;;;;;;5.40;55.30;;;3.72;60.54;101477.53;12265809;19;19915;-87
2024/01/19 17:53:59;;;;;;;;;;;5.50;55.40;;;3.75;60.34;101493.00;12265069;19;19915;-88
2024/01/19 17:58:00;;;;;;;;;;;5.40;55.30;;;3.49;60.38;101454.66;12262441;19;20006;-87
2024/01/19 18:02:02;;;;;;;;;;;5.40;55.30;;;3.71;60.49;101496.50;12265795;19;20342;-88
2024/01/19 18:06:03;;;;;;;;;;;5.40;55.20;;;3.55;60.20;101470.03;12264826;19;19982;-87
2024/01/19 18:10:05;;;;;;;;;;;5.40;55.20;;;3.71;60.44;101499.94;12258998;19;20393;-87
2024/01/19 18:14:51;;;;;;;;;;;5.40;55.20;;;3.72;60.30;101513.72;12264012;19;19988;-88
2024/01/19 18:19:18;;;;;;;;;;;5.40;55.20;;;3.36;60.23;101453.97;12242556;19;20381;-92
2024/01/19 18:23:20;;;;;;;;;;;5.60;55.30;;;3.40;60.40;101472.84;12247768;19;19932;-92